sensor_id;sensor_type;location;lat;lon;timestamp;temperature;humidity
32522;DHT22;18963;51.504;5.316;2023-07-24T00:01:49;17.10;99.90
32522;DHT22;18963;51.504;5.316;2023-07-24T00:04:14;17.10;99.90
32522;DHT22;18963;51.504;5.316;2023-07-24T00:06:40;17.20;99.90
32522;DHT22;18963;51.504;5.316;2023-07-24T00:09:05;17.20;99.90
32522;DHT22;18963;51.504;5.316;2023-07-24T00:11:31;17.20;99.90
32522;DHT22;18963;51.504;5.316;2023-07-24T00:13:57;17.20;99.90
32522;DHT22;18963;51.504;5.316;2023-07-24T00:16:22;17.20;99.90
32522;DHT22;18963;51.504;5.316;2023-07-24T00:18:48;17.30;99.90
32522;DHT22;18963;51.504;5.316;2023-07-24T00:21:13;17.20;99.90
32522;DHT22;18963;51.504;5.316;2023-07-24T00:23:39;17.30;99.90
32522;DHT22;18963;51.504;5.316;2023-07-24T00:26:04;17.30;99.90
32522;DHT22;18963;51.504;5.316;2023-07-24T00:28:30;17.20;99.90
32522;DHT22;18963;51.504;5.316;2023-07-24T00:30:55;17.30;99.90
32522;DHT22;18963;51.504;5.316;2023-07-24T00:33:21;17.20;99.90
32522;DHT22;18963;51.504;5.316;2023-07-24T00:35:47;17.20;99.90
32522;DHT22;18963;51.504;5.316;2023-07-24T00:38:12;17.20;99.90
32522;DHT22;18963;51.504;5.316;2023-07-24T00:40:38;17.20;99.90
32522;DHT22;18963;51.504;5.316;2023-07-24T00:43:03;17.20;99.90
32522;DHT22;18963;51.504;5.316;2023-07-24T00:45:29;17.20;99.90
32522;DHT22;18963;51.504;5.316;2023-07-24T00:47:54;17.20;99.90
32522;DHT22;18963;51.504;5.316;2023-07-24T00:50:20;17.20;99.90
32522;DHT22;18963;51.504;5.316;2023-07-24T00:52:46;17.20;99.90
32522;DHT22;18963;51.504;5.316;2023-07-24T00:55:13;17.20;99.90
32522;DHT22;18963;51.504;5.316;2023-07-24T00:57:39;17.20;99.90
32522;DHT22;18963;51.504;5.316;2023-07-24T01:00:05;17.20;99.90
32522;DHT22;18963;51.504;5.316;2023-07-24T01:02:31;17.20;99.90
32522;DHT22;18963;51.504;5.316;2023-07-24T01:04:57;17.20;99.90
32522;DHT22;18963;51.504;5.316;2023-07-24T01:07:22;17.20;99.90
32522;DHT22;18963;51.504;5.316;2023-07-24T01:09:48;17.30;99.90
32522;DHT22;18963;51.504;5.316;2023-07-24T01:14:46;17.30;99.90
32522;DHT22;18963;51.504;5.316;2023-07-24T01:17:13;17.30;99.90
32522;DHT22;18963;51.504;5.316;2023-07-24T01:19:43;17.20;99.90
32522;DHT22;18963;51.504;5.316;2023-07-24T01:22:25;17.20;99.90
32522;DHT22;18963;51.504;5.316;2023-07-24T01:27:27;17.30;99.90
32522;DHT22;18963;51.504;5.316;2023-07-24T01:29:52;17.30;99.90
32522;DHT22;18963;51.504;5.316;2023-07-24T01:32:18;17.30;99.90
32522;DHT22;18963;51.504;5.316;2023-07-24T01:34:44;17.30;99.90
32522;DHT22;18963;51.504;5.316;2023-07-24T01:37:09;17.30;99.90
32522;DHT22;18963;51.504;5.316;2023-07-24T01:39:37;17.30;99.90
32522;DHT22;18963;51.504;5.316;2023-07-24T01:42:02;17.30;99.90
32522;DHT22;18963;51.504;5.316;2023-07-24T01:44:28;17.30;99.90
32522;DHT22;18963;51.504;5.316;2023-07-24T01:46:54;17.30;99.90
32522;DHT22;18963;51.504;5.316;2023-07-24T01:49:19;17.30;99.90
32522;DHT22;18963;51.504;5.316;2023-07-24T01:51:45;17.20;99.90
32522;DHT22;18963;51.504;5.316;2023-07-24T01:54:10;17.30;99.90
32522;DHT22;18963;51.504;5.316;2023-07-24T01:56:36;17.20;99.90
32522;DHT22;18963;51.504;5.316;2023-07-24T01:59:01;17.30;99.90
32522;DHT22;18963;51.504;5.316;2023-07-24T02:01:27;17.30;99.90
32522;DHT22;18963;51.504;5.316;2023-07-24T02:03:52;17.30;99.90
32522;DHT22;18963;51.504;5.316;2023-07-24T02:06:18;17.30;99.90
32522;DHT22;18963;51.504;5.316;2023-07-24T02:08:43;17.30;99.90
32522;DHT22;18963;51.504;5.316;2023-07-24T02:11:16;17.30;99.90
32522;DHT22;18963;51.504;5.316;2023-07-24T02:13:45;17.30;99.90
32522;DHT22;18963;51.504;5.316;2023-07-24T02:16:11;17.30;99.90
32522;DHT22;18963;51.504;5.316;2023-07-24T02:18:38;17.30;99.90
32522;DHT22;18963;51.504;5.316;2023-07-24T02:21:03;17.30;99.90
32522;DHT22;18963;51.504;5.316;2023-07-24T02:23:29;17.30;99.90
32522;DHT22;18963;51.504;5.316;2023-07-24T02:25:54;17.40;99.90
32522;DHT22;18963;51.504;5.316;2023-07-24T02:28:20;17.30;99.90
32522;DHT22;18963;51.504;5.316;2023-07-24T02:30:46;17.30;99.90
32522;DHT22;18963;51.504;5.316;2023-07-24T02:33:12;17.30;99.90
32522;DHT22;18963;51.504;5.316;2023-07-24T02:35:38;17.40;99.90
32522;DHT22;18963;51.504;5.316;2023-07-24T02:38:04;17.30;99.90
32522;DHT22;18963;51.504;5.316;2023-07-24T02:40:29;17.30;99.90
32522;DHT22;18963;51.504;5.316;2023-07-24T02:42:55;17.30;99.90
32522;DHT22;18963;51.504;5.316;2023-07-24T02:45:20;17.30;99.90
32522;DHT22;18963;51.504;5.316;2023-07-24T02:47:45;17.30;99.90
32522;DHT22;18963;51.504;5.316;2023-07-24T02:50:11;17.30;99.90
32522;DHT22;18963;51.504;5.316;2023-07-24T02:52:36;17.30;99.90
32522;DHT22;18963;51.504;5.316;2023-07-24T02:55:02;17.30;99.90
32522;DHT22;18963;51.504;5.316;2023-07-24T02:57:27;17.20;99.90
32522;DHT22;18963;51.504;5.316;2023-07-24T02:59:53;17.20;99.90
32522;DHT22;18963;51.504;5.316;2023-07-24T03:02:18;17.10;99.90
32522;DHT22;18963;51.504;5.316;2023-07-24T03:04:44;17.00;99.90
32522;DHT22;18963;51.504;5.316;2023-07-24T03:07:09;17.00;99.90
32522;DHT22;18963;51.504;5.316;2023-07-24T03:09:35;16.90;99.90
32522;DHT22;18963;51.504;5.316;2023-07-24T03:12:00;16.90;99.90
32522;DHT22;18963;51.504;5.316;2023-07-24T03:14:26;16.90;99.90
32522;DHT22;18963;51.504;5.316;2023-07-24T03:16:51;16.90;99.90
32522;DHT22;18963;51.504;5.316;2023-07-24T03:19:17;16.80;99.90
32522;DHT22;18963;51.504;5.316;2023-07-24T03:21:45;16.70;99.90
32522;DHT22;18963;51.504;5.316;2023-07-24T03:24:10;16.70;99.90
32522;DHT22;18963;51.504;5.316;2023-07-24T03:26:36;16.70;99.90
32522;DHT22;18963;51.504;5.316;2023-07-24T03:29:01;16.70;99.90
32522;DHT22;18963;51.504;5.316;2023-07-24T03:31:27;16.60;99.90
32522;DHT22;18963;51.504;5.316;2023-07-24T03:33:52;16.60;99.90
32522;DHT22;18963;51.504;5.316;2023-07-24T03:36:18;16.60;99.90
32522;DHT22;18963;51.504;5.316;2023-07-24T03:38:43;16.60;99.90
32522;DHT22;18963;51.504;5.316;2023-07-24T03:41:08;16.60;99.90
32522;DHT22;18963;51.504;5.316;2023-07-24T03:43:34;16.60;99.90
32522;DHT22;18963;51.504;5.316;2023-07-24T03:45:59;16.50;99.90
32522;DHT22;18963;51.504;5.316;2023-07-24T03:48:26;16.50;99.90
32522;DHT22;18963;51.504;5.316;2023-07-24T03:50:57;16.50;99.90
32522;DHT22;18963;51.504;5.316;2023-07-24T03:53:23;16.50;99.90
32522;DHT22;18963;51.504;5.316;2023-07-24T03:55:48;16.50;99.90
32522;DHT22;18963;51.504;5.316;2023-07-24T03:58:14;16.50;99.90
32522;DHT22;18963;51.504;5.316;2023-07-24T04:00:39;16.50;99.90
32522;DHT22;18963;51.504;5.316;2023-07-24T04:03:05;16.50;99.90
32522;DHT22;18963;51.504;5.316;2023-07-24T04:05:30;16.50;99.90
32522;DHT22;18963;51.504;5.316;2023-07-24T04:07:56;16.50;99.90
32522;DHT22;18963;51.504;5.316;2023-07-24T04:10:21;16.50;99.90
32522;DHT22;18963;51.504;5.316;2023-07-24T04:12:47;16.50;99.90
32522;DHT22;18963;51.504;5.316;2023-07-24T04:15:12;16.50;99.90
32522;DHT22;18963;51.504;5.316;2023-07-24T04:17:38;16.50;99.90
32522;DHT22;18963;51.504;5.316;2023-07-24T04:20:05;16.50;99.90
32522;DHT22;18963;51.504;5.316;2023-07-24T04:22:31;16.50;99.90
32522;DHT22;18963;51.504;5.316;2023-07-24T04:24:56;16.50;99.90
32522;DHT22;18963;51.504;5.316;2023-07-24T04:27:22;16.50;99.90
32522;DHT22;18963;51.504;5.316;2023-07-24T04:29:47;16.50;99.90
32522;DHT22;18963;51.504;5.316;2023-07-24T04:32:12;16.40;99.90
32522;DHT22;18963;51.504;5.316;2023-07-24T04:34:38;16.40;99.90
32522;DHT22;18963;51.504;5.316;2023-07-24T04:37:03;16.40;99.90
32522;DHT22;18963;51.504;5.316;2023-07-24T04:39:29;16.30;99.90
32522;DHT22;18963;51.504;5.316;2023-07-24T04:41:55;16.30;99.90
32522;DHT22;18963;51.504;5.316;2023-07-24T04:44:20;16.20;99.90
32522;DHT22;18963;51.504;5.316;2023-07-24T04:46:46;16.20;99.90
32522;DHT22;18963;51.504;5.316;2023-07-24T04:49:11;16.20;99.90
32522;DHT22;18963;51.504;5.316;2023-07-24T04:51:37;16.10;99.90
32522;DHT22;18963;51.504;5.316;2023-07-24T04:54:02;16.10;99.90
32522;DHT22;18963;51.504;5.316;2023-07-24T04:56:28;16.10;99.90
32522;DHT22;18963;51.504;5.316;2023-07-24T04:58:53;16.00;99.90
32522;DHT22;18963;51.504;5.316;2023-07-24T05:01:19;16.10;99.90
32522;DHT22;18963;51.504;5.316;2023-07-24T05:03:44;16.00;99.90
32522;DHT22;18963;51.504;5.316;2023-07-24T05:06:10;16.00;99.90
32522;DHT22;18963;51.504;5.316;2023-07-24T05:08:35;16.00;99.90
32522;DHT22;18963;51.504;5.316;2023-07-24T05:11:01;16.00;99.90
32522;DHT22;18963;51.504;5.316;2023-07-24T05:13:26;16.00;99.90
32522;DHT22;18963;51.504;5.316;2023-07-24T05:15:52;16.00;99.90
32522;DHT22;18963;51.504;5.316;2023-07-24T05:18:17;16.00;99.90
32522;DHT22;18963;51.504;5.316;2023-07-24T05:20:46;16.00;99.90
32522;DHT22;18963;51.504;5.316;2023-07-24T05:23:12;16.10;99.90
32522;DHT22;18963;51.504;5.316;2023-07-24T05:25:38;16.10;99.90
32522;DHT22;18963;51.504;5.316;2023-07-24T05:28:03;16.10;99.90
32522;DHT22;18963;51.504;5.316;2023-07-24T05:30:29;16.20;99.90
32522;DHT22;18963;51.504;5.316;2023-07-24T05:32:54;16.20;99.90
32522;DHT22;18963;51.504;5.316;2023-07-24T05:35:20;16.30;99.90
32522;DHT22;18963;51.504;5.316;2023-07-24T05:37:45;16.30;99.90
32522;DHT22;18963;51.504;5.316;2023-07-24T05:40:11;16.40;99.90
32522;DHT22;18963;51.504;5.316;2023-07-24T05:42:36;16.40;99.90
32522;DHT22;18963;51.504;5.316;2023-07-24T05:45:08;16.50;99.90
32522;DHT22;18963;51.504;5.316;2023-07-24T05:47:34;16.50;99.90
32522;DHT22;18963;51.504;5.316;2023-07-24T05:50:00;16.50;99.90
32522;DHT22;18963;51.504;5.316;2023-07-24T05:52:25;16.60;99.90
32522;DHT22;18963;51.504;5.316;2023-07-24T05:54:51;16.60;99.90
32522;DHT22;18963;51.504;5.316;2023-07-24T05:57:16;16.60;99.90
32522;DHT22;18963;51.504;5.316;2023-07-24T05:59:41;16.70;99.90
32522;DHT22;18963;51.504;5.316;2023-07-24T06:02:07;16.70;99.90
32522;DHT22;18963;51.504;5.316;2023-07-24T06:04:33;16.70;99.90
32522;DHT22;18963;51.504;5.316;2023-07-24T06:06:59;16.70;99.90
32522;DHT22;18963;51.504;5.316;2023-07-24T06:09:24;16.80;99.90
32522;DHT22;18963;51.504;5.316;2023-07-24T06:11:50;16.80;99.90
32522;DHT22;18963;51.504;5.316;2023-07-24T06:14:16;16.90;99.90
32522;DHT22;18963;51.504;5.316;2023-07-24T06:16:41;17.00;99.90
32522;DHT22;18963;51.504;5.316;2023-07-24T06:19:07;17.10;99.90
32522;DHT22;18963;51.504;5.316;2023-07-24T06:21:32;17.20;99.90
32522;DHT22;18963;51.504;5.316;2023-07-24T06:23:58;17.30;99.90
32522;DHT22;18963;51.504;5.316;2023-07-24T06:26:23;17.40;99.90
32522;DHT22;18963;51.504;5.316;2023-07-24T06:28:49;17.40;99.90
32522;DHT22;18963;51.504;5.316;2023-07-24T06:31:14;17.50;99.90
32522;DHT22;18963;51.504;5.316;2023-07-24T06:33:39;17.60;99.90
32522;DHT22;18963;51.504;5.316;2023-07-24T06:36:08;17.70;99.90
32522;DHT22;18963;51.504;5.316;2023-07-24T06:38:34;17.70;99.90
32522;DHT22;18963;51.504;5.316;2023-07-24T06:40:59;17.70;99.90
32522;DHT22;18963;51.504;5.316;2023-07-24T06:43:25;17.50;99.90
32522;DHT22;18963;51.504;5.316;2023-07-24T06:45:50;17.50;99.90
32522;DHT22;18963;51.504;5.316;2023-07-24T06:48:16;17.40;99.90
32522;DHT22;18963;51.504;5.316;2023-07-24T06:50:41;17.30;99.90
32522;DHT22;18963;51.504;5.316;2023-07-24T06:53:07;17.40;99.90
32522;DHT22;18963;51.504;5.316;2023-07-24T06:55:32;17.30;99.90
32522;DHT22;18963;51.504;5.316;2023-07-24T06:57:58;17.20;99.90
32522;DHT22;18963;51.504;5.316;2023-07-24T07:00:23;17.20;99.90
32522;DHT22;18963;51.504;5.316;2023-07-24T07:02:49;17.20;99.90
32522;DHT22;18963;51.504;5.316;2023-07-24T07:05:14;17.20;99.90
32522;DHT22;18963;51.504;5.316;2023-07-24T07:07:40;17.20;99.90
32522;DHT22;18963;51.504;5.316;2023-07-24T07:10:05;17.10;99.90
32522;DHT22;18963;51.504;5.316;2023-07-24T07:12:31;17.20;99.90
32522;DHT22;18963;51.504;5.316;2023-07-24T07:14:56;17.10;99.90
32522;DHT22;18963;51.504;5.316;2023-07-24T07:17:22;17.10;99.90
32522;DHT22;18963;51.504;5.316;2023-07-24T07:19:47;17.00;99.90
32522;DHT22;18963;51.504;5.316;2023-07-24T07:22:13;16.90;99.90
32522;DHT22;18963;51.504;5.316;2023-07-24T07:24:38;16.90;99.90
32522;DHT22;18963;51.504;5.316;2023-07-24T07:27:04;16.90;99.90
32522;DHT22;18963;51.504;5.316;2023-07-24T07:29:29;16.90;99.90
32522;DHT22;18963;51.504;5.316;2023-07-24T07:31:56;16.90;99.90
32522;DHT22;18963;51.504;5.316;2023-07-24T07:34:22;17.00;99.90
32522;DHT22;18963;51.504;5.316;2023-07-24T07:36:47;17.30;99.90
32522;DHT22;18963;51.504;5.316;2023-07-24T07:39:13;17.50;99.90
32522;DHT22;18963;51.504;5.316;2023-07-24T07:41:39;17.80;99.90
32522;DHT22;18963;51.504;5.316;2023-07-24T07:44:04;17.90;99.90
32522;DHT22;18963;51.504;5.316;2023-07-24T07:46:30;18.10;99.90
32522;DHT22;18963;51.504;5.316;2023-07-24T07:48:55;18.10;99.90
32522;DHT22;18963;51.504;5.316;2023-07-24T07:51:21;18.40;99.90
32522;DHT22;18963;51.504;5.316;2023-07-24T07:53:46;18.50;99.90
32522;DHT22;18963;51.504;5.316;2023-07-24T07:56:12;18.70;99.90
32522;DHT22;18963;51.504;5.316;2023-07-24T07:58:37;18.70;99.90
32522;DHT22;18963;51.504;5.316;2023-07-24T08:01:06;18.90;99.90
32522;DHT22;18963;51.504;5.316;2023-07-24T08:03:32;18.90;99.90
32522;DHT22;18963;51.504;5.316;2023-07-24T08:05:58;18.90;99.90
32522;DHT22;18963;51.504;5.316;2023-07-24T08:08:24;19.00;99.90
32522;DHT22;18963;51.504;5.316;2023-07-24T08:10:49;19.00;99.90
32522;DHT22;18963;51.504;5.316;2023-07-24T08:13:15;19.10;99.90
32522;DHT22;18963;51.504;5.316;2023-07-24T08:15:40;19.10;99.90
32522;DHT22;18963;51.504;5.316;2023-07-24T08:18:06;19.00;99.90
32522;DHT22;18963;51.504;5.316;2023-07-24T08:20:32;19.10;99.90
32522;DHT22;18963;51.504;5.316;2023-07-24T08:23:00;19.20;99.90
32522;DHT22;18963;51.504;5.316;2023-07-24T08:25:25;19.30;99.90
32522;DHT22;18963;51.504;5.316;2023-07-24T08:27:51;19.30;99.90
32522;DHT22;18963;51.504;5.316;2023-07-24T08:30:17;19.30;99.90
32522;DHT22;18963;51.504;5.316;2023-07-24T08:32:43;19.30;99.90
32522;DHT22;18963;51.504;5.316;2023-07-24T08:35:08;19.30;99.90
32522;DHT22;18963;51.504;5.316;2023-07-24T08:37:34;19.20;99.90
32522;DHT22;18963;51.504;5.316;2023-07-24T08:40:00;19.10;99.90
32522;DHT22;18963;51.504;5.316;2023-07-24T08:42:26;19.10;99.90
32522;DHT22;18963;51.504;5.316;2023-07-24T08:44:51;19.20;99.90
32522;DHT22;18963;51.504;5.316;2023-07-24T08:47:18;19.20;99.90
32522;DHT22;18963;51.504;5.316;2023-07-24T08:49:43;19.20;99.90
32522;DHT22;18963;51.504;5.316;2023-07-24T08:52:09;19.10;99.90
32522;DHT22;18963;51.504;5.316;2023-07-24T08:54:35;19.10;99.90
32522;DHT22;18963;51.504;5.316;2023-07-24T08:57:02;19.10;99.90
32522;DHT22;18963;51.504;5.316;2023-07-24T08:59:28;19.00;99.90
32522;DHT22;18963;51.504;5.316;2023-07-24T09:01:55;19.00;99.90
32522;DHT22;18963;51.504;5.316;2023-07-24T09:04:20;19.00;99.90
32522;DHT22;18963;51.504;5.316;2023-07-24T09:06:46;19.00;99.90
32522;DHT22;18963;51.504;5.316;2023-07-24T09:09:15;19.10;99.90
32522;DHT22;18963;51.504;5.316;2023-07-24T09:11:48;19.10;99.90
32522;DHT22;18963;51.504;5.316;2023-07-24T09:14:23;19.20;99.90
32522;DHT22;18963;51.504;5.316;2023-07-24T09:16:49;19.30;99.90
32522;DHT22;18963;51.504;5.316;2023-07-24T09:19:18;19.30;99.90
32522;DHT22;18963;51.504;5.316;2023-07-24T09:21:44;19.40;99.90
32522;DHT22;18963;51.504;5.316;2023-07-24T09:24:11;19.50;99.90
32522;DHT22;18963;51.504;5.316;2023-07-24T09:26:45;19.60;99.90
32522;DHT22;18963;51.504;5.316;2023-07-24T09:29:11;19.80;99.90
32522;DHT22;18963;51.504;5.316;2023-07-24T09:31:36;20.00;99.90
32522;DHT22;18963;51.504;5.316;2023-07-24T09:34:02;20.10;99.90
32522;DHT22;18963;51.504;5.316;2023-07-24T09:36:36;20.20;99.90
32522;DHT22;18963;51.504;5.316;2023-07-24T09:39:02;20.20;99.90
32522;DHT22;18963;51.504;5.316;2023-07-24T09:41:31;20.20;99.90
32522;DHT22;18963;51.504;5.316;2023-07-24T09:44:00;20.20;99.90
32522;DHT22;18963;51.504;5.316;2023-07-24T09:46:25;20.20;99.90
32522;DHT22;18963;51.504;5.316;2023-07-24T09:48:51;20.20;99.90
32522;DHT22;18963;51.504;5.316;2023-07-24T09:51:17;20.20;99.90
32522;DHT22;18963;51.504;5.316;2023-07-24T09:56:09;20.10;99.90
32522;DHT22;18963;51.504;5.316;2023-07-24T09:58:37;20.00;99.90
32522;DHT22;18963;51.504;5.316;2023-07-24T10:01:04;19.90;99.90
32522;DHT22;18963;51.504;5.316;2023-07-24T10:03:32;19.70;99.90
32522;DHT22;18963;51.504;5.316;2023-07-24T10:05:58;19.60;99.90
32522;DHT22;18963;51.504;5.316;2023-07-24T10:08:24;19.50;99.90
32522;DHT22;18963;51.504;5.316;2023-07-24T10:10:50;19.40;99.90
32522;DHT22;18963;51.504;5.316;2023-07-24T10:13:19;19.30;99.90
32522;DHT22;18963;51.504;5.316;2023-07-24T10:15:45;19.20;99.90
32522;DHT22;18963;51.504;5.316;2023-07-24T10:18:11;19.20;99.90
32522;DHT22;18963;51.504;5.316;2023-07-24T10:20:38;19.10;99.90
32522;DHT22;18963;51.504;5.316;2023-07-24T10:23:04;19.10;99.90
32522;DHT22;18963;51.504;5.316;2023-07-24T10:25:30;19.00;99.90
32522;DHT22;18963;51.504;5.316;2023-07-24T10:28:05;19.00;99.90
32522;DHT22;18963;51.504;5.316;2023-07-24T10:30:33;18.90;99.90
32522;DHT22;18963;51.504;5.316;2023-07-24T10:33:18;18.80;99.90
32522;DHT22;18963;51.504;5.316;2023-07-24T10:35:44;18.80;99.90
32522;DHT22;18963;51.504;5.316;2023-07-24T10:38:11;18.80;99.90
32522;DHT22;18963;51.504;5.316;2023-07-24T10:40:39;18.90;99.90
32522;DHT22;18963;51.504;5.316;2023-07-24T10:43:05;19.00;99.90
32522;DHT22;18963;51.504;5.316;2023-07-24T10:45:50;19.20;99.90
32522;DHT22;18963;51.504;5.316;2023-07-24T10:48:17;19.40;99.90
32522;DHT22;18963;51.504;5.316;2023-07-24T10:50:43;19.60;99.90
32522;DHT22;18963;51.504;5.316;2023-07-24T10:53:09;19.90;99.90
32522;DHT22;18963;51.504;5.316;2023-07-24T10:55:35;20.00;99.90
32522;DHT22;18963;51.504;5.316;2023-07-24T10:58:01;20.20;99.90
32522;DHT22;18963;51.504;5.316;2023-07-24T11:00:26;20.20;99.90
32522;DHT22;18963;51.504;5.316;2023-07-24T11:02:53;20.30;99.90
32522;DHT22;18963;51.504;5.316;2023-07-24T11:05:20;20.30;99.90
32522;DHT22;18963;51.504;5.316;2023-07-24T11:07:46;20.30;99.90
32522;DHT22;18963;51.504;5.316;2023-07-24T11:10:15;20.30;99.90
32522;DHT22;18963;51.504;5.316;2023-07-24T11:12:41;20.30;99.90
32522;DHT22;18963;51.504;5.316;2023-07-24T11:15:07;20.30;99.90
32522;DHT22;18963;51.504;5.316;2023-07-24T11:17:33;20.40;99.90
32522;DHT22;18963;51.504;5.316;2023-07-24T11:20:10;20.40;99.90
32522;DHT22;18963;51.504;5.316;2023-07-24T11:22:37;20.40;99.90
32522;DHT22;18963;51.504;5.316;2023-07-24T11:25:03;20.30;99.90
32522;DHT22;18963;51.504;5.316;2023-07-24T11:27:29;20.40;99.90
32522;DHT22;18963;51.504;5.316;2023-07-24T11:29:55;20.50;99.90
32522;DHT22;18963;51.504;5.316;2023-07-24T11:32:21;20.60;99.90
32522;DHT22;18963;51.504;5.316;2023-07-24T11:34:47;20.70;99.90
32522;DHT22;18963;51.504;5.316;2023-07-24T11:37:13;20.90;99.90
32522;DHT22;18963;51.504;5.316;2023-07-24T11:39:39;21.10;99.90
32522;DHT22;18963;51.504;5.316;2023-07-24T11:42:04;21.20;99.90
32522;DHT22;18963;51.504;5.316;2023-07-24T11:44:30;21.30;99.90
32522;DHT22;18963;51.504;5.316;2023-07-24T11:47:02;21.30;99.90
32522;DHT22;18963;51.504;5.316;2023-07-24T11:49:28;21.30;99.90
32522;DHT22;18963;51.504;5.316;2023-07-24T11:51:59;21.30;99.90
32522;DHT22;18963;51.504;5.316;2023-07-24T11:54:24;21.40;99.90
32522;DHT22;18963;51.504;5.316;2023-07-24T11:56:50;21.40;99.90
32522;DHT22;18963;51.504;5.316;2023-07-24T11:59:15;21.50;99.90
32522;DHT22;18963;51.504;5.316;2023-07-24T12:01:45;21.60;99.90
32522;DHT22;18963;51.504;5.316;2023-07-24T12:04:10;21.80;99.90
32522;DHT22;18963;51.504;5.316;2023-07-24T12:06:37;22.20;99.90
32522;DHT22;18963;51.504;5.316;2023-07-24T12:09:03;22.80;99.90
32522;DHT22;18963;51.504;5.316;2023-07-24T12:11:30;23.50;99.90
32522;DHT22;18963;51.504;5.316;2023-07-24T12:13:55;23.70;99.90
32522;DHT22;18963;51.504;5.316;2023-07-24T12:16:21;23.70;99.90
32522;DHT22;18963;51.504;5.316;2023-07-24T12:18:46;23.80;99.90
32522;DHT22;18963;51.504;5.316;2023-07-24T12:21:12;23.80;99.90
32522;DHT22;18963;51.504;5.316;2023-07-24T12:23:38;23.80;99.90
32522;DHT22;18963;51.504;5.316;2023-07-24T12:26:04;24.00;99.90
32522;DHT22;18963;51.504;5.316;2023-07-24T12:28:29;24.10;99.90
32522;DHT22;18963;51.504;5.316;2023-07-24T12:30:55;24.00;99.90
32522;DHT22;18963;51.504;5.316;2023-07-24T12:33:20;24.00;99.90
32522;DHT22;18963;51.504;5.316;2023-07-24T12:35:49;23.70;99.90
32522;DHT22;18963;51.504;5.316;2023-07-24T12:38:14;23.20;99.90
32522;DHT22;18963;51.504;5.316;2023-07-24T12:40:40;22.50;99.90
32522;DHT22;18963;51.504;5.316;2023-07-24T12:43:05;22.20;99.90
32522;DHT22;18963;51.504;5.316;2023-07-24T12:45:31;21.80;99.90
32522;DHT22;18963;51.504;5.316;2023-07-24T12:47:56;21.50;99.90
32522;DHT22;18963;51.504;5.316;2023-07-24T12:50:22;21.40;99.90
32522;DHT22;18963;51.504;5.316;2023-07-24T12:52:48;21.30;99.90
32522;DHT22;18963;51.504;5.316;2023-07-24T12:55:14;21.40;99.90
32522;DHT22;18963;51.504;5.316;2023-07-24T12:57:39;21.50;99.90
32522;DHT22;18963;51.504;5.316;2023-07-24T13:00:05;21.70;99.90
32522;DHT22;18963;51.504;5.316;2023-07-24T13:02:31;21.80;99.90
32522;DHT22;18963;51.504;5.316;2023-07-24T13:04:57;22.10;99.90
32522;DHT22;18963;51.504;5.316;2023-07-24T13:07:22;22.30;99.90
32522;DHT22;18963;51.504;5.316;2023-07-24T13:09:48;22.50;99.90
32522;DHT22;18963;51.504;5.316;2023-07-24T13:12:13;22.80;99.90
32522;DHT22;18963;51.504;5.316;2023-07-24T13:14:39;23.10;99.90
32522;DHT22;18963;51.504;5.316;2023-07-24T13:17:04;23.30;99.90
32522;DHT22;18963;51.504;5.316;2023-07-24T13:19:30;23.40;99.90
32522;DHT22;18963;51.504;5.316;2023-07-24T13:21:56;23.40;99.90
32522;DHT22;18963;51.504;5.316;2023-07-24T13:24:22;23.30;99.90
32522;DHT22;18963;51.504;5.316;2023-07-24T13:26:47;23.30;99.90
32522;DHT22;18963;51.504;5.316;2023-07-24T13:29:13;23.30;99.90
32522;DHT22;18963;51.504;5.316;2023-07-24T13:31:38;23.00;99.90
32522;DHT22;18963;51.504;5.316;2023-07-24T13:34:06;22.70;99.90
32522;DHT22;18963;51.504;5.316;2023-07-24T13:36:31;22.30;99.90
32522;DHT22;18963;51.504;5.316;2023-07-24T13:38:57;21.90;99.90
32522;DHT22;18963;51.504;5.316;2023-07-24T13:41:22;21.70;99.90
32522;DHT22;18963;51.504;5.316;2023-07-24T13:43:48;21.40;99.90
32522;DHT22;18963;51.504;5.316;2023-07-24T13:46:13;21.00;99.90
32522;DHT22;18963;51.504;5.316;2023-07-24T13:48:39;20.70;99.90
32522;DHT22;18963;51.504;5.316;2023-07-24T13:51:04;20.40;99.90
32522;DHT22;18963;51.504;5.316;2023-07-24T13:53:30;20.00;99.90
32522;DHT22;18963;51.504;5.316;2023-07-24T13:55:55;19.70;99.90
32522;DHT22;18963;51.504;5.316;2023-07-24T13:58:21;19.30;99.90
32522;DHT22;18963;51.504;5.316;2023-07-24T14:00:46;19.00;99.90
32522;DHT22;18963;51.504;5.316;2023-07-24T14:03:12;18.80;99.90
32522;DHT22;18963;51.504;5.316;2023-07-24T14:05:37;18.60;99.90
32522;DHT22;18963;51.504;5.316;2023-07-24T14:08:03;18.40;99.90
32522;DHT22;18963;51.504;5.316;2023-07-24T14:10:29;18.40;99.90
32522;DHT22;18963;51.504;5.316;2023-07-24T14:12:54;18.30;99.90
32522;DHT22;18963;51.504;5.316;2023-07-24T14:15:20;18.30;99.90
32522;DHT22;18963;51.504;5.316;2023-07-24T14:17:45;18.40;99.90
32522;DHT22;18963;51.504;5.316;2023-07-24T14:20:11;18.60;99.90
32522;DHT22;18963;51.504;5.316;2023-07-24T14:22:36;19.00;99.90
32522;DHT22;18963;51.504;5.316;2023-07-24T14:25:02;19.30;99.90
32522;DHT22;18963;51.504;5.316;2023-07-24T14:27:27;19.80;99.90
32522;DHT22;18963;51.504;5.316;2023-07-24T14:29:53;20.10;99.90
32522;DHT22;18963;51.504;5.316;2023-07-24T14:32:18;20.40;99.90
32522;DHT22;18963;51.504;5.316;2023-07-24T14:34:47;20.70;99.90
32522;DHT22;18963;51.504;5.316;2023-07-24T14:37:12;21.00;99.90
32522;DHT22;18963;51.504;5.316;2023-07-24T14:39:38;21.30;99.90
32522;DHT22;18963;51.504;5.316;2023-07-24T14:42:04;21.50;99.90
32522;DHT22;18963;51.504;5.316;2023-07-24T14:44:29;21.60;99.90
32522;DHT22;18963;51.504;5.316;2023-07-24T14:46:55;21.80;99.90
32522;DHT22;18963;51.504;5.316;2023-07-24T14:49:20;21.90;99.90
32522;DHT22;18963;51.504;5.316;2023-07-24T14:51:46;21.90;99.90
32522;DHT22;18963;51.504;5.316;2023-07-24T14:54:11;22.00;99.90
32522;DHT22;18963;51.504;5.316;2023-07-24T14:56:37;22.00;99.90
32522;DHT22;18963;51.504;5.316;2023-07-24T14:59:02;22.10;99.90
32522;DHT22;18963;51.504;5.316;2023-07-24T15:01:28;21.90;99.90
32522;DHT22;18963;51.504;5.316;2023-07-24T15:03:54;21.90;99.90
32522;DHT22;18963;51.504;5.316;2023-07-24T15:06:19;21.70;99.90
32522;DHT22;18963;51.504;5.316;2023-07-24T15:08:45;21.60;99.90
32522;DHT22;18963;51.504;5.316;2023-07-24T15:11:10;21.40;99.90
32522;DHT22;18963;51.504;5.316;2023-07-24T15:13:38;21.20;99.90
32522;DHT22;18963;51.504;5.316;2023-07-24T15:16:03;20.90;99.90
32522;DHT22;18963;51.504;5.316;2023-07-24T15:18:29;20.90;99.90
32522;DHT22;18963;51.504;5.316;2023-07-24T15:20:54;20.90;99.90
32522;DHT22;18963;51.504;5.316;2023-07-24T15:23:21;20.90;99.90
32522;DHT22;18963;51.504;5.316;2023-07-24T15:25:46;21.00;99.90
32522;DHT22;18963;51.504;5.316;2023-07-24T15:28:12;21.00;99.90
32522;DHT22;18963;51.504;5.316;2023-07-24T15:30:37;21.00;99.90